Time;durP1;ratioP1;P1;durP2;ratioP2;P2;SDS_P1;SDS_P2;PMS_P1;PMS_P2;Temp;Humidity;BMP_temperature;BMP_pressure;BME280_temperature;BME280_humidity;BME280_pressure;Samples;Min_cycle;Max_cycle;Signal;HPM_P1;HPM_P2
2021/04/13 00:00:29;;;;;;;1.85;1.00;;;;;;;;;;5031771;28;20037;-50
2021/04/13 00:02:55;;;;;;;3.42;1.40;;;;;;;;;;5040734;28;20048;-49
2021/04/13 00:05:29;;;;;;;2.60;1.17;;;;;;;;;;5037193;28;20130;-54
2021/04/13 00:07:55;;;;;;;3.42;1.15;;;;;;;;;;5025133;28;20052;-54
2021/04/13 00:10:26;;;;;;;4.63;1.15;;;;;;;;;;5029424;28;20069;-57
2021/04/13 00:12:52;;;;;;;3.38;1.23;;;;;;;;;;5042894;28;20041;-56
2021/04/13 00:15:23;;;;;;;2.13;1.10;;;;;;;;;;5031360;28;20034;-52
2021/04/13 00:17:50;;;;;;;4.25;1.30;;;;;;;;;;5022632;28;20041;-53
2021/04/13 00:20:18;;;;;;;2.97;1.23;;;;;;;;;;5018451;28;20057;-55
2021/04/13 00:22:44;;;;;;;4.00;1.20;;;;;;;;;;5020719;28;20044;-51
2021/04/13 00:25:16;;;;;;;3.17;1.20;;;;;;;;;;5023004;28;20053;-55
2021/04/13 00:27:42;;;;;;;2.92;1.33;;;;;;;;;;5041528;28;20037;-57
2021/04/13 00:30:10;;;;;;;7.47;1.48;;;;;;;;;;5035456;28;20097;-55
2021/04/13 00:32:37;;;;;;;2.55;1.00;;;;;;;;;;5021376;28;20046;-55
2021/04/13 00:35:15;;;;;;;4.82;1.30;;;;;;;;;;5036288;28;20045;-51
2021/04/13 00:37:41;;;;;;;4.03;1.05;;;;;;;;;;5001127;28;20061;-50
2021/04/13 00:40:19;;;;;;;2.55;1.23;;;;;;;;;;5019467;28;20120;-51
2021/04/13 00:42:45;;;;;;;3.15;1.17;;;;;;;;;;5021851;28;20049;-53
2021/04/13 00:45:14;;;;;;;3.95;1.10;;;;;;;;;;5029737;28;20097;-54
2021/04/13 00:47:41;;;;;;;2.17;0.80;;;;;;;;;;5039212;28;20049;-51
2021/04/13 00:50:10;;;;;;;3.55;1.02;;;;;;;;;;5041672;28;20084;-51
2021/04/13 00:52:38;;;;;;;2.47;0.90;;;;;;;;;;5019207;28;20045;-51
2021/04/13 00:55:06;;;;;;;4.10;1.17;;;;;;;;;;5022145;28;20053;-52
2021/04/13 00:57:34;;;;;;;7.07;1.00;;;;;;;;;;5010260;28;20038;-52
2021/04/13 01:00:04;;;;;;;3.33;1.00;;;;;;;;;;5018303;28;20034;-53
2021/04/13 01:02:31;;;;;;;1.95;0.93;;;;;;;;;;5017210;28;20050;-52
2021/04/13 01:05:00;;;;;;;2.55;0.90;;;;;;;;;;5022117;28;20133;-52
2021/04/13 01:07:32;;;;;;;1.75;1.13;;;;;;;;;;5026117;28;20049;-49
2021/04/13 01:10:03;;;;;;;2.67;0.90;;;;;;;;;;5039552;28;20087;-55
2021/04/13 01:12:31;;;;;;;3.25;1.08;;;;;;;;;;5028792;28;20061;-54
2021/04/13 01:14:59;;;;;;;4.80;0.93;;;;;;;;;;5022746;28;20043;-53
2021/04/13 01:17:25;;;;;;;5.07;0.93;;;;;;;;;;5020818;28;20033;-54
2021/04/13 01:19:55;;;;;;;2.90;0.88;;;;;;;;;;5021542;28;20055;-50
2021/04/13 01:22:27;;;;;;;2.67;0.93;;;;;;;;;;5023674;28;20033;-51
2021/04/13 01:24:58;;;;;;;3.55;0.88;;;;;;;;;;5041516;28;20049;-55
2021/04/13 01:27:24;;;;;;;2.13;0.98;;;;;;;;;;5035635;28;20050;-52
2021/04/13 01:29:51;;;;;;;3.38;0.98;;;;;;;;;;5043332;28;20490;-54
2021/04/13 01:32:18;;;;;;;3.58;0.70;;;;;;;;;;5038249;28;20042;-55
2021/04/13 01:34:52;;;;;;;3.85;1.23;;;;;;;;;;5038553;28;20050;-51
2021/04/13 01:37:26;;;;;;;3.83;1.02;;;;;;;;;;5039715;28;20040;-49
2021/04/13 01:40:00;;;;;;;5.05;1.10;;;;;;;;;;5019538;28;20074;-52
2021/04/13 01:42:26;;;;;;;3.40;1.20;;;;;;;;;;5020225;28;20049;-53
2021/04/13 01:44:54;;;;;;;1.42;0.80;;;;;;;;;;5031747;28;20055;-52
2021/04/13 01:47:21;;;;;;;3.30;0.90;;;;;;;;;;5021998;28;20030;-54
2021/04/13 01:49:49;;;;;;;4.88;1.25;;;;;;;;;;5048281;28;20049;-49
2021/04/13 01:52:19;;;;;;;6.60;1.00;;;;;;;;;;5040081;28;20052;-52
2021/04/13 01:54:45;;;;;;;3.38;1.00;;;;;;;;;;5022773;28;20100;-54
2021/04/13 01:57:15;;;;;;;3.47;1.00;;;;;;;;;;5020884;28;20057;-57
2021/04/13 01:59:45;;;;;;;4.72;1.05;;;;;;;;;;5026478;28;20022;-53
2021/04/13 02:02:14;;;;;;;1.98;1.00;;;;;;;;;;5019181;28;20037;-53
2021/04/13 02:04:44;;;;;;;1.35;0.75;;;;;;;;;;5028461;28;20042;-58
2021/04/13 02:07:19;;;;;;;3.58;1.08;;;;;;;;;;5040067;28;20033;-56
2021/04/13 02:09:50;;;;;;;2.47;0.82;;;;;;;;;;5027821;28;20141;-55
2021/04/13 02:12:21;;;;;;;4.20;1.27;;;;;;;;;;5020300;28;20049;-56
2021/04/13 02:14:48;;;;;;;3.22;1.10;;;;;;;;;;5019000;28;20022;-56
2021/04/13 02:17:15;;;;;;;5.10;0.93;;;;;;;;;;5021796;28;20038;-59
2021/04/13 02:19:44;;;;;;;2.28;0.90;;;;;;;;;;5021337;28;20053;-58
2021/04/13 02:22:13;;;;;;;3.22;0.90;;;;;;;;;;5036814;28;20052;-55
2021/04/13 02:24:39;;;;;;;4.10;1.10;;;;;;;;;;5034934;28;20104;-56
2021/04/13 02:27:09;;;;;;;3.10;1.00;;;;;;;;;;5041843;28;20048;-55
2021/04/13 02:29:36;;;;;;;2.83;0.98;;;;;;;;;;5037317;28;20045;-56
2021/04/13 02:32:06;;;;;;;5.75;1.25;;;;;;;;;;5023677;28;20052;-55
2021/04/13 02:34:36;;;;;;;2.78;1.00;;;;;;;;;;5023305;28;20168;-55
2021/04/13 02:37:09;;;;;;;2.60;1.00;;;;;;;;;;5039312;28;20056;-53
2021/04/13 02:39:37;;;;;;;2.38;1.10;;;;;;;;;;5044896;28;20114;-54
2021/04/13 02:42:05;;;;;;;6.47;1.30;;;;;;;;;;5040389;28;20042;-56
2021/04/13 02:44:32;;;;;;;7.05;1.13;;;;;;;;;;5043466;28;20463;-62
2021/04/13 02:47:02;;;;;;;7.38;1.00;;;;;;;;;;5036218;28;20041;-61
2021/04/13 02:49:28;;;;;;;2.42;1.08;;;;;;;;;;5042652;28;20033;-55
2021/04/13 02:51:59;;;;;;;6.90;1.30;;;;;;;;;;5039615;28;20056;-55
2021/04/13 02:54:27;;;;;;;1.95;1.08;;;;;;;;;;5041502;28;20127;-53
2021/04/13 02:56:56;;;;;;;6.47;1.02;;;;;;;;;;5027134;28;20061;-59
2021/04/13 02:59:24;;;;;;;3.45;1.00;;;;;;;;;;5022180;28;20042;-57
2021/04/13 03:01:53;;;;;;;2.78;1.15;;;;;;;;;;5029116;28;20130;-56
2021/04/13 03:04:20;;;;;;;4.15;1.23;;;;;;;;;;5042056;28;20067;-57
2021/04/13 03:06:48;;;;;;;5.03;1.20;;;;;;;;;;5031310;28;20049;-57
2021/04/13 03:09:15;;;;;;;7.22;1.20;;;;;;;;;;5022276;28;20029;-55
2021/04/13 03:11:44;;;;;;;5.28;1.25;;;;;;;;;;5023322;28;20037;-58
2021/04/13 03:14:11;;;;;;;6.20;1.02;;;;;;;;;;5042087;28;20045;-51
2021/04/13 03:16:39;;;;;;;2.55;1.10;;;;;;;;;;5039116;28;20110;-54
2021/04/13 03:19:07;;;;;;;4.32;1.05;;;;;;;;;;5041603;28;20037;-56
2021/04/13 03:21:35;;;;;;;3.08;1.23;;;;;;;;;;5035704;28;20049;-60
2021/04/13 03:24:03;;;;;;;5.32;1.02;;;;;;;;;;5021511;28;20130;-59
2021/04/13 03:26:31;;;;;;;3.67;1.00;;;;;;;;;;5022502;28;20033;-53
2021/04/13 03:28:59;;;;;;;3.05;1.00;;;;;;;;;;5019929;28;20048;-56
2021/04/13 03:31:31;;;;;;;9.30;1.10;;;;;;;;;;5022511;28;20037;-50
2021/04/13 03:33:57;;;;;;;5.55;1.17;;;;;;;;;;5025372;28;20047;-52
2021/04/13 03:36:25;;;;;;;3.33;1.10;;;;;;;;;;5024277;28;20439;-53
2021/04/13 03:38:54;;;;;;;4.88;1.00;;;;;;;;;;5018984;28;20061;-58
2021/04/13 03:41:21;;;;;;;3.40;1.20;;;;;;;;;;5021710;28;20030;-54
2021/04/13 03:43:49;;;;;;;3.03;1.17;;;;;;;;;;5030047;28;20049;-55
2021/04/13 03:46:16;;;;;;;7.00;1.23;;;;;;;;;;5026787;28;20034;-57
2021/04/13 03:48:47;;;;;;;2.53;1.20;;;;;;;;;;5029116;28;20081;-52
2021/04/13 03:51:15;;;;;;;3.05;1.00;;;;;;;;;;5042138;28;20033;-55
2021/04/13 03:53:42;;;;;;;1.90;1.02;;;;;;;;;;5037495;28;20355;-53
2021/04/13 03:56:10;;;;;;;2.58;1.00;;;;;;;;;;5043888;28;20045;-53
2021/04/13 03:58:40;;;;;;;3.88;1.10;;;;;;;;;;5031549;28;20037;-51
2021/04/13 04:01:07;;;;;;;3.65;1.13;;;;;;;;;;5028375;28;20041;-58
2021/04/13 04:03:37;;;;;;;3.65;0.98;;;;;;;;;;5034990;28;20144;-58
2021/04/13 04:06:03;;;;;;;3.28;1.13;;;;;;;;;;5021245;28;20047;-58
2021/04/13 04:08:33;;;;;;;3.45;1.20;;;;;;;;;;5021900;28;20044;-56
2021/04/13 04:11:07;;;;;;;3.42;1.13;;;;;;;;;;5041878;28;20087;-60
2021/04/13 04:13:35;;;;;;;2.28;0.95;;;;;;;;;;5037837;28;20045;-54
2021/04/13 04:16:06;;;;;;;3.92;1.15;;;;;;;;;;5021135;28;20042;-56
2021/04/13 04:18:33;;;;;;;3.65;1.42;;;;;;;;;;5022530;28;20057;-55
2021/04/13 04:21:02;;;;;;;2.47;1.10;;;;;;;;;;5037066;28;20057;-54
2021/04/13 04:23:29;;;;;;;4.03;1.27;;;;;;;;;;5040524;28;20235;-57
2021/04/13 04:25:58;;;;;;;2.75;1.10;;;;;;;;;;5037850;28;20056;-56
2021/04/13 04:28:28;;;;;;;2.90;1.20;;;;;;;;;;5040906;28;20041;-57
2021/04/13 04:31:15;;;;;;;2.95;1.02;;;;;;;;;;5023544;28;20073;-59
2021/04/13 04:33:41;;;;;;;5.57;1.40;;;;;;;;;;5024090;28;20048;-62
2021/04/13 04:36:22;;;;;;;3.08;1.02;;;;;;;;;;5019398;28;20366;-57
2021/04/13 04:38:48;;;;;;;8.13;0.98;;;;;;;;;;5021006;28;20034;-58
2021/04/13 04:41:14;;;;;;;4.72;1.23;;;;;;;;;;5018939;28;20049;-58
2021/04/13 04:43:45;;;;;;;2.13;1.00;;;;;;;;;;5022414;28;20128;-56
2021/04/13 04:46:29;;;;;;;2.78;1.00;;;;;;;;;;5020255;28;20180;-56
2021/04/13 04:48:59;;;;;;;4.10;1.40;;;;;;;;;;5036133;28;20041;-53
2021/04/13 04:51:26;;;;;;;6.13;1.50;;;;;;;;;;5030187;28;20049;-58
2021/04/13 04:53:51;;;;;;;16.02;1.35;;;;;;;;;;5040735;28;20041;-55
2021/04/13 04:56:17;;;;;;;3.22;1.33;;;;;;;;;;5030510;28;20060;-58
2021/04/13 04:58:44;;;;;;;3.63;1.30;;;;;;;;;;5020748;28;20044;-57
2021/04/13 05:01:10;;;;;;;5.00;1.35;;;;;;;;;;5016359;28;20044;-58
2021/04/13 05:03:38;;;;;;;4.85;1.27;;;;;;;;;;5021672;28;20054;-55
2021/04/13 05:06:04;;;;;;;3.60;1.30;;;;;;;;;;5018554;28;20085;-57
2021/04/13 05:08:30;;;;;;;3.45;1.42;;;;;;;;;;5021308;28;20271;-57
2021/04/13 05:10:58;;;;;;;18.90;5.53;;;;;;;;;;5018550;28;20037;-58
2021/04/13 05:13:24;;;;;;;13.35;3.83;;;;;;;;;;5039725;28;20037;-58
2021/04/13 05:15:50;;;;;;;11.80;3.22;;;;;;;;;;5035794;28;20147;-54
2021/04/13 05:18:16;;;;;;;5.82;1.70;;;;;;;;;;5026169;28;20285;-58
2021/04/13 05:20:44;;;;;;;6.68;1.77;;;;;;;;;;5028299;28;20042;-58
2021/04/13 05:23:10;;;;;;;5.07;2.00;;;;;;;;;;5023814;28;20071;-55
2021/04/13 05:25:36;;;;;;;7.00;2.15;;;;;;;;;;5032652;28;20045;-56
2021/04/13 05:28:03;;;;;;;6.25;2.13;;;;;;;;;;5022750;28;20075;-59
2021/04/13 05:30:29;;;;;;;5.03;2.20;;;;;;;;;;5029593;28;20066;-58
2021/04/13 05:32:55;;;;;;;7.85;2.22;;;;;;;;;;5023871;28;20123;-58
2021/04/13 05:35:22;;;;;;;9.90;2.70;;;;;;;;;;5032192;28;20073;-60
2021/04/13 05:37:51;;;;;;;11.60;2.38;;;;;;;;;;5027690;28;20025;-51
2021/04/13 05:40:19;;;;;;;6.47;1.80;;;;;;;;;;5026488;28;20037;-55
2021/04/13 05:42:45;;;;;;;8.00;1.77;;;;;;;;;;5026614;28;20070;-52
2021/04/13 05:45:14;;;;;;;8.82;1.98;;;;;;;;;;5025372;28;20052;-58
2021/04/13 05:47:40;;;;;;;4.25;1.73;;;;;;;;;;5024522;28;20069;-56
2021/04/13 05:50:08;;;;;;;4.90;1.67;;;;;;;;;;5027208;28;20045;-58
2021/04/13 05:52:34;;;;;;;4.45;1.70;;;;;;;;;;5027388;28;20049;-61
2021/04/13 05:55:01;;;;;;;6.78;1.60;;;;;;;;;;5026344;28;20057;-57
2021/04/13 05:57:29;;;;;;;7.22;1.50;;;;;;;;;;5028725;28;20138;-57
2021/04/13 05:59:56;;;;;;;5.47;1.50;;;;;;;;;;5027355;28;20087;-58
2021/04/13 06:02:22;;;;;;;9.23;1.38;;;;;;;;;;5027487;28;20049;-60
2021/04/13 06:04:49;;;;;;;3.53;1.50;;;;;;;;;;5024493;28;20049;-55
2021/04/13 06:07:15;;;;;;;8.90;1.90;;;;;;;;;;5023215;28;20042;-58
2021/04/13 06:09:41;;;;;;;13.65;4.43;;;;;;;;;;5031966;28;20072;-56
2021/04/13 06:12:10;;;;;;;18.67;6.30;;;;;;;;;;5042347;28;20057;-56
2021/04/13 06:14:36;;;;;;;;;;;;;;;;;;5039894;28;20045;-59
2021/04/13 06:17:04;;;;;;;11.07;3.08;;;;;;;;;;5029986;28;19933;-59
2021/04/13 06:19:31;;;;;;;5.82;1.50;;;;;;;;;;5029099;28;20368;-58
2021/04/13 06:21:57;;;;;;;5.63;1.55;;;;;;;;;;5041450;28;20127;-58
2021/04/13 06:24:24;;;;;;;4.03;1.70;;;;;;;;;;5032906;28;20065;-57
2021/04/13 06:26:50;;;;;;;6.53;1.48;;;;;;;;;;5043252;28;20037;-59
2021/04/13 06:29:16;;;;;;;5.28;1.25;;;;;;;;;;5027997;28;20029;-58
2021/04/13 06:31:43;;;;;;;7.85;1.55;;;;;;;;;;5024962;28;20029;-58
2021/04/13 06:34:09;;;;;;;4.53;1.30;;;;;;;;;;5018864;28;20037;-54
2021/04/13 06:36:36;;;;;;;4.35;1.25;;;;;;;;;;5022742;28;20029;-55
2021/04/13 06:39:04;;;;;;;3.50;1.30;;;;;;;;;;5024070;28;20042;-62
2021/04/13 06:41:40;;;;;;;4.88;1.67;;;;;;;;;;5038437;28;20041;-55
2021/04/13 06:44:26;;;;;;;6.05;1.30;;;;;;;;;;5042727;28;20138;-57
2021/04/13 06:46:57;;;;;;;6.90;1.50;;;;;;;;;;5022511;28;20046;-57
2021/04/13 06:49:28;;;;;;;6.55;2.47;;;;;;;;;;5023526;28;20092;-58
2021/04/13 06:52:02;;;;;;;4.45;1.75;;;;;;;;;;5019774;28;20081;-60
2021/04/13 06:54:36;;;;;;;11.13;1.60;;;;;;;;;;5023807;28;20115;-55
2021/04/13 06:57:22;;;;;;;7.68;1.77;;;;;;;;;;5040587;28;20061;-55
2021/04/13 07:00:15;;;;;;;8.43;1.48;;;;;;;;;;5043860;28;20053;-59
2021/04/13 07:02:48;;;;;;;3.50;1.15;;;;;;;;;;5041472;28;20048;-55
2021/04/13 07:05:15;;;;;;;7.32;1.38;;;;;;;;;;5041058;28;20034;-55
2021/04/13 07:07:43;;;;;;;3.63;1.08;;;;;;;;;;5025107;28;20143;-58
2021/04/13 07:10:15;;;;;;;5.35;1.15;;;;;;;;;;5013133;28;20563;-57
2021/04/13 07:12:44;;;;;;;6.88;1.23;;;;;;;;;;5018934;28;20050;-59
2021/04/13 07:15:13;;;;;;;8.02;1.20;;;;;;;;;;5021826;28;20045;-50
2021/04/13 07:17:42;;;;;;;6.90;0.98;;;;;;;;;;5018898;28;20048;-52
2021/04/13 07:20:14;;;;;;;4.80;1.20;;;;;;;;;;5039194;28;20055;-55
2021/04/13 07:22:42;;;;;;;4.10;1.02;;;;;;;;;;5033592;28;20045;-52
2021/04/13 07:25:10;;;;;;;8.60;2.60;;;;;;;;;;5038337;28;20083;-58
2021/04/13 07:27:41;;;;;;;5.88;1.95;;;;;;;;;;5024414;28;20050;-54
2021/04/13 07:30:11;;;;;;;5.60;1.40;;;;;;;;;;5021615;28;20038;-54
2021/04/13 07:32:37;;;;;;;5.28;1.88;;;;;;;;;;5017491;28;20076;-58
2021/04/13 07:35:06;;;;;;;5.35;1.02;;;;;;;;;;5042175;28;20045;-55
2021/04/13 07:37:31;;;;;;;;;;;;;;;;;;5028386;28;20137;-53
2021/04/13 07:39:59;;;;;;;5.07;1.17;;;;;;;;;;5020881;28;19957;-55
2021/04/13 07:42:26;;;;;;;11.05;1.20;;;;;;;;;;5020999;28;20121;-58
2021/04/13 07:44:58;;;;;;;5.35;1.10;;;;;;;;;;5020550;28;20033;-53
2021/04/13 07:47:32;;;;;;;3.80;0.95;;;;;;;;;;5023679;28;20057;-55
2021/04/13 07:49:58;;;;;;;3.40;0.77;;;;;;;;;;5040831;28;20087;-58
2021/04/13 07:52:41;;;;;;;6.05;0.88;;;;;;;;;;5037763;28;20046;-52
2021/04/13 07:55:11;;;;;;;2.95;0.73;;;;;;;;;;5038210;28;20064;-60
2021/04/13 07:57:41;;;;;;;5.18;0.63;;;;;;;;;;5037398;28;20055;-56
2021/04/13 08:00:14;;;;;;;6.13;1.25;;;;;;;;;;5041419;28;20503;-54
2021/04/13 08:02:40;;;;;;;5.75;0.80;;;;;;;;;;5038983;28;20053;-54
2021/04/13 08:05:07;;;;;;;10.48;0.90;;;;;;;;;;5022839;28;20037;-50
2021/04/13 08:07:35;;;;;;;3.67;0.65;;;;;;;;;;5024418;28;20038;-54
2021/04/13 08:10:04;;;;;;;4.73;0.83;;;;;;;;;;5020532;28;20054;-55
2021/04/13 08:12:32;;;;;;;3.75;0.60;;;;;;;;;;5019987;28;20279;-53
2021/04/13 08:15:07;;;;;;;3.00;0.60;;;;;;;;;;5019555;28;20045;-55
2021/04/13 08:17:34;;;;;;;10.00;0.82;;;;;;;;;;5018606;28;20053;-51
2021/04/13 08:20:01;;;;;;;6.63;0.90;;;;;;;;;;5032694;28;20053;-53
2021/04/13 08:22:29;;;;;;;2.05;0.88;;;;;;;;;;5039397;28;20107;-56
2021/04/13 08:24:55;;;;;;;1.98;0.75;;;;;;;;;;5024434;28;20041;-60
2021/04/13 08:27:24;;;;;;;7.53;0.82;;;;;;;;;;5021714;28;20052;-57
2021/04/13 08:29:51;;;;;;;;;;;;;;;;;;5019433;28;20064;-53
2021/04/13 08:35:12;;;;;;;7.47;1.00;;;;;;;;;;5030186;28;20114;-61
2021/04/13 08:37:51;;;;;;;2.88;0.38;;;;;;;;;;5042986;28;20037;-54
2021/04/13 08:40:17;;;;;;;;;;;;;;;;;;5026160;28;20038;-54
2021/04/13 08:42:47;;;;;;;5.30;0.52;;;;;;;;;;5036800;28;19998;-52
2021/04/13 08:45:18;;;;;;;6.07;0.70;;;;;;;;;;5023824;28;20037;-51
2021/04/13 08:47:45;;;;;;;3.95;0.50;;;;;;;;;;5041194;28;20119;-54
2021/04/13 08:50:31;;;;;;;4.97;0.67;;;;;;;;;;5035293;28;20089;-54
2021/04/13 08:53:00;;;;;;;1.90;0.50;;;;;;;;;;5040278;28;20037;-55
2021/04/13 08:55:26;;;;;;;;;;;;;;;;;;5028072;28;20034;-56
2021/04/13 08:58:02;;;;;;;4.50;0.60;;;;;;;;;;5018944;28;19929;-58
2021/04/13 09:00:33;;;;;;;3.13;0.55;;;;;;;;;;5016987;28;20037;-54
2021/04/13 09:03:01;;;;;;;2.28;0.57;;;;;;;;;;5020104;28;20042;-55
2021/04/13 09:05:27;;;;;;;9.77;0.80;;;;;;;;;;5023664;28;20037;-59
2021/04/13 09:07:56;;;;;;;2.15;0.50;;;;;;;;;;5043010;28;20051;-57
2021/04/13 09:10:33;;;;;;;1.85;0.55;;;;;;;;;;5034542;28;20068;-55
2021/04/13 09:13:04;;;;;;;5.82;0.70;;;;;;;;;;5020048;28;20042;-55
2021/04/13 09:15:31;;;;;;;3.38;0.52;;;;;;;;;;5016330;28;20058;-54
2021/04/13 09:18:01;;;;;;;2.65;0.60;;;;;;;;;;5021151;28;20131;-57
2021/04/13 09:20:36;;;;;;;2.30;0.70;;;;;;;;;;5018201;28;20065;-55
2021/04/13 09:23:08;;;;;;;8.18;0.93;;;;;;;;;;5021959;28;20069;-57
2021/04/13 09:25:35;;;;;;;4.10;1.10;;;;;;;;;;5011948;28;20026;-58
2021/04/13 09:28:06;;;;;;;3.22;0.50;;;;;;;;;;5034029;28;20030;-58
2021/04/13 09:30:35;;;;;;;3.22;0.85;;;;;;;;;;5038925;28;20050;-61
2021/04/13 09:33:05;;;;;;;2.47;0.75;;;;;;;;;;5031261;28;20037;-54
2021/04/13 09:35:37;;;;;;;3.80;0.68;;;;;;;;;;5023259;28;20097;-55
2021/04/13 09:38:21;;;;;;;8.82;2.22;;;;;;;;;;5021912;28;20053;-56
2021/04/13 09:40:55;;;;;;;7.57;2.15;;;;;;;;;;5023619;28;20038;-54
2021/04/13 09:43:30;;;;;;;6.75;0.98;;;;;;;;;;5019586;28;20042;-54
2021/04/13 09:46:00;;;;;;;4.07;0.73;;;;;;;;;;5036275;28;20029;-58
2021/04/13 09:48:32;;;;;;;5.22;0.60;;;;;;;;;;5024133;28;20041;-53
2021/04/13 09:51:10;;;;;;;4.20;0.85;;;;;;;;;;5024947;28;20057;-52
2021/04/13 09:53:42;;;;;;;4.85;1.02;;;;;;;;;;5022276;28;20038;-56
2021/04/13 09:56:20;;;;;;;6.10;0.70;;;;;;;;;;5024100;28;20042;-59
2021/04/13 09:58:50;;;;;;;4.85;0.88;;;;;;;;;;5034055;28;20049;-58
2021/04/13 10:01:26;;;;;;;3.42;1.00;;;;;;;;;;5043326;28;20122;-60
2021/04/13 10:03:57;;;;;;;6.55;0.90;;;;;;;;;;5021624;28;20046;-56
2021/04/13 10:06:28;;;;;;;1.77;0.52;;;;;;;;;;5023867;28;20041;-57
2021/04/13 10:08:57;;;;;;;3.80;0.80;;;;;;;;;;5018264;28;20077;-59
2021/04/13 10:11:36;;;;;;;3.80;0.73;;;;;;;;;;5023629;28;20026;-61
2021/04/13 10:14:17;;;;;;;2.35;0.77;;;;;;;;;;5030826;28;20115;-62
2021/04/13 10:16:51;;;;;;;4.13;0.70;;;;;;;;;;5043373;28;20041;-56
2021/04/13 10:19:36;;;;;;;3.88;0.98;;;;;;;;;;5038625;28;20053;-57
2021/04/13 10:22:23;;;;;;;1.77;0.60;;;;;;;;;;5032185;28;20123;-56
2021/04/13 10:25:05;;;;;;;4.60;0.93;;;;;;;;;;5022762;28;20057;-56
2021/04/13 10:27:58;;;;;;;2.17;0.80;;;;;;;;;;5021381;28;20045;-60
2021/04/13 10:30:37;;;;;;;2.47;0.60;;;;;;;;;;5018502;28;20414;-58
2021/04/13 10:33:17;;;;;;;2.67;0.70;;;;;;;;;;5021561;28;20055;-60
2021/04/13 10:36:01;;;;;;;5.47;0.82;;;;;;;;;;5021702;28;20053;-58
2021/04/13 10:38:42;;;;;;;4.70;0.73;;;;;;;;;;5021748;28;20041;-54
2021/04/13 10:41:29;;;;;;;0.80;0.60;;;;;;;;;;5022640;28;20053;-55
2021/04/13 10:44:22;;;;;;;3.47;0.82;;;;;;;;;;5019029;28;20049;-56
2021/04/13 10:46:51;;;;;;;4.63;0.80;;;;;;;;;;5007225;28;20054;-52
2021/04/13 10:49:33;;;;;;;3.70;1.20;;;;;;;;;;5028023;28;20045;-55
2021/04/13 10:52:20;;;;;;;8.68;0.90;;;;;;;;;;5020449;28;20045;-56
2021/04/13 10:55:02;;;;;;;3.67;0.60;;;;;;;;;;5014493;28;20052;-51
2021/04/13 10:57:46;;;;;;;3.40;1.00;;;;;;;;;;5042111;28;20045;-58
2021/04/13 11:00:26;;;;;;;2.95;0.70;;;;;;;;;;5029484;28;20033;-55
2021/04/13 11:03:00;;;;;;;3.83;1.13;;;;;;;;;;5024484;28;20029;-54
2021/04/13 11:05:46;;;;;;;4.25;0.93;;;;;;;;;;5027103;28;20099;-55
2021/04/13 11:08:29;;;;;;;1.20;0.60;;;;;;;;;;5016154;28;20033;-60
2021/04/13 11:11:07;;;;;;;3.88;0.88;;;;;;;;;;5038034;28;20040;-53
2021/04/13 11:13:50;;;;;;;1.48;0.50;;;;;;;;;;5043477;28;20060;-55
2021/04/13 11:16:31;;;;;;;3.13;0.65;;;;;;;;;;5026734;28;20127;-52
2021/04/13 11:19:25;;;;;;;2.50;0.80;;;;;;;;;;5018215;28;20045;-58
2021/04/13 11:22:17;;;;;;;2.50;0.82;;;;;;;;;;5019058;28;20060;-57
2021/04/13 11:24:58;;;;;;;1.85;0.60;;;;;;;;;;5025170;28;20042;-57
2021/04/13 11:27:41;;;;;;;3.60;0.80;;;;;;;;;;5020236;28;20045;-57
2021/04/13 11:30:22;;;;;;;1.80;0.65;;;;;;;;;;5022027;28;20092;-56
2021/04/13 11:33:00;;;;;;;2.60;0.52;;;;;;;;;;5036901;28;20073;-58
2021/04/13 11:35:29;;;;;;;3.05;0.70;;;;;;;;;;5023221;28;20030;-60
2021/04/13 11:38:13;;;;;;;1.10;0.50;;;;;;;;;;5016872;28;20111;-55
2021/04/13 11:40:49;;;;;;;4.55;0.70;;;;;;;;;;5021756;28;20037;-55
2021/04/13 11:43:19;;;;;;;2.80;0.70;;;;;;;;;;5019580;28;20041;-61
2021/04/13 11:45:48;;;;;;;1.25;0.52;;;;;;;;;;5033325;28;20045;-61
2021/04/13 11:48:21;;;;;;;1.75;0.60;;;;;;;;;;5022779;28;20054;-58
2021/04/13 11:50:54;;;;;;;1.55;0.50;;;;;;;;;;5022197;28;20110;-58
2021/04/13 11:53:28;;;;;;;3.30;0.90;;;;;;;;;;5018228;28;20038;-56
2021/04/13 11:55:54;;;;;;;2.25;0.45;;;;;;;;;;5022582;28;20049;-54
2021/04/13 11:58:23;;;;;;;3.63;0.55;;;;;;;;;;5029475;28;20193;-56
2021/04/13 12:00:52;;;;;;;1.27;0.52;;;;;;;;;;5041031;28;20037;-55
2021/04/13 12:03:28;;;;;;;2.30;0.73;;;;;;;;;;5025047;28;20042;-58
2021/04/13 12:05:55;;;;;;;3.63;0.60;;;;;;;;;;5020260;28;20165;-55
2021/04/13 12:08:48;;;;;;;2.67;0.60;;;;;;;;;;5017793;28;20247;-55
2021/04/13 12:11:16;;;;;;;4.07;0.60;;;;;;;;;;5022764;28;20114;-55
2021/04/13 12:13:44;;;;;;;1.98;0.60;;;;;;;;;;5017176;28;20053;-55
2021/04/13 12:16:13;;;;;;;1.23;0.52;;;;;;;;;;5021178;28;20033;-57
2021/04/13 12:18:45;;;;;;;2.78;0.40;;;;;;;;;;5028268;28;20121;-55
2021/04/13 12:21:31;;;;;;;1.35;0.43;;;;;;;;;;5041428;28;20091;-57
2021/04/13 12:24:01;;;;;;;5.63;1.10;;;;;;;;;;5027709;28;20054;-53
2021/04/13 12:26:32;;;;;;;3.65;1.05;;;;;;;;;;5035401;28;20038;-52
2021/04/13 12:28:58;;;;;;;2.60;0.80;;;;;;;;;;5026074;28;20045;-52
2021/04/13 12:31:25;;;;;;;2.47;1.00;;;;;;;;;;5040662;28;20037;-57
2021/04/13 12:34:06;;;;;;;5.90;0.80;;;;;;;;;;5036579;28;20037;-58
2021/04/13 12:36:53;;;;;;;4.47;0.80;;;;;;;;;;5040778;28;20050;-57
2021/04/13 12:39:38;;;;;;;0.95;0.63;;;;;;;;;;5029210;28;20033;-53
2021/04/13 12:42:07;;;;;;;4.82;0.70;;;;;;;;;;5041634;28;20045;-56
2021/04/13 12:44:33;;;;;;;1.80;0.80;;;;;;;;;;5028219;28;20119;-53
2021/04/13 12:47:00;;;;;;;0.88;0.70;;;;;;;;;;5021360;28;20041;-56
2021/04/13 12:49:27;;;;;;;2.10;0.55;;;;;;;;;;5018276;28;20029;-61
2021/04/13 12:51:55;;;;;;;2.17;0.50;;;;;;;;;;5021774;28;20041;-58
2021/04/13 12:54:26;;;;;;;2.58;0.70;;;;;;;;;;5022599;28;20041;-59
2021/04/13 12:56:54;;;;;;;2.42;0.88;;;;;;;;;;5042929;28;20045;-53
2021/04/13 12:59:22;;;;;;;6.43;0.80;;;;;;;;;;5035850;28;20041;-59
2021/04/13 13:01:49;;;;;;;;;;;;;;;;;;5021689;28;20046;-54
2021/04/13 13:04:16;;;;;;;1.77;0.65;;;;;;;;;;5017549;28;19924;-54
2021/04/13 13:06:45;;;;;;;2.35;0.80;;;;;;;;;;5021147;28;20045;-54
2021/04/13 13:09:19;;;;;;;3.22;0.75;;;;;;;;;;5020112;28;20053;-58
2021/04/13 13:11:45;;;;;;;2.30;0.60;;;;;;;;;;5036571;28;20046;-59
2021/04/13 13:14:13;;;;;;;2.67;0.82;;;;;;;;;;5040124;28;20041;-53
2021/04/13 13:16:40;;;;;;;8.25;1.02;;;;;;;;;;5020185;28;20156;-57
2021/04/13 13:19:08;;;;;;;2.50;0.70;;;;;;;;;;5020795;28;20053;-58
2021/04/13 13:21:50;;;;;;;2.78;0.80;;;;;;;;;;5029064;28;20053;-58
2021/04/13 13:24:17;;;;;;;2.95;0.80;;;;;;;;;;5020217;28;20295;-58
2021/04/13 13:26:43;;;;;;;1.80;0.60;;;;;;;;;;5044068;28;20053;-58
2021/04/13 13:29:09;;;;;;;1.73;0.77;;;;;;;;;;5032433;28;20065;-54
2021/04/13 13:31:38;;;;;;;3.85;0.93;;;;;;;;;;5026913;28;20077;-56
2021/04/13 13:34:05;;;;;;;3.45;0.70;;;;;;;;;;5027613;28;20041;-58
2021/04/13 13:36:32;;;;;;;4.65;0.52;;;;;;;;;;5034927;28;20041;-56
2021/04/13 13:38:59;;;;;;;4.80;0.80;;;;;;;;;;5024208;28;20123;-55
2021/04/13 13:41:25;;;;;;;1.95;0.70;;;;;;;;;;5015710;28;20045;-59
2021/04/13 13:43:51;;;;;;;1.88;0.50;;;;;;;;;;5020320;28;20030;-56
2021/04/13 13:46:21;;;;;;;1.95;0.60;;;;;;;;;;5030748;28;20049;-56
2021/04/13 13:48:48;;;;;;;1.08;0.60;;;;;;;;;;5038922;28;20045;-61
2021/04/13 13:51:27;;;;;;;1.33;0.60;;;;;;;;;;5034067;28;20045;-58
2021/04/13 13:53:53;;;;;;;;;;;;;;;;;;5021198;28;20042;-57
2021/04/13 13:56:30;;;;;;;2.42;0.60;;;;;;;;;;5018210;28;19936;-59
2021/04/13 13:59:15;;;;;;;2.83;0.98;;;;;;;;;;5019986;28;20037;-58
2021/04/13 14:01:44;;;;;;;3.47;0.98;;;;;;;;;;5017575;28;20040;-56
2021/04/13 14:04:10;;;;;;;;;;;;;;;;;;5019402;28;20074;-55
2021/04/13 14:06:38;;;;;;;5.57;0.73;;;;;;;;;;5019141;28;20003;-57
2021/04/13 14:09:09;;;;;;;5.47;1.13;;;;;;;;;;5019028;28;20050;-54
2021/04/13 14:11:36;;;;;;;6.72;1.55;;;;;;;;;;5020053;28;20042;-56
2021/04/13 14:14:04;;;;;;;4.28;0.85;;;;;;;;;;5019280;28;20042;-57
2021/04/13 14:16:42;;;;;;;2.70;1.00;;;;;;;;;;5018896;28;20038;-58
2021/04/13 14:19:20;;;;;;;4.13;0.60;;;;;;;;;;5017216;28;20321;-57
2021/04/13 14:21:48;;;;;;;5.18;1.13;;;;;;;;;;5022599;28;20056;-58
2021/04/13 14:24:20;;;;;;;2.35;0.85;;;;;;;;;;5020338;28;20053;-59
2021/04/13 14:26:47;;;;;;;4.28;0.95;;;;;;;;;;5024305;28;20041;-54
2021/04/13 14:29:18;;;;;;;2.20;0.75;;;;;;;;;;5022865;28;20077;-58
2021/04/13 14:31:46;;;;;;;4.05;0.85;;;;;;;;;;5024632;28;20053;-57
2021/04/13 14:34:12;;;;;;;3.67;1.00;;;;;;;;;;5031041;28;20041;-59
2021/04/13 14:36:38;;;;;;;4.25;0.90;;;;;;;;;;5043827;28;20099;-55
2021/04/13 14:39:07;;;;;;;1.90;0.60;;;;;;;;;;5036920;28;20049;-58
2021/04/13 14:41:36;;;;;;;1.63;0.70;;;;;;;;;;5042625;28;20045;-55
2021/04/13 14:44:05;;;;;;;5.57;0.95;;;;;;;;;;5030255;28;20115;-60
2021/04/13 14:46:31;;;;;;;1.25;0.50;;;;;;;;;;5022683;28;20117;-59
2021/04/13 14:48:57;;;;;;;3.33;0.60;;;;;;;;;;5024408;28;20130;-60
2021/04/13 14:51:23;;;;;;;2.60;0.82;;;;;;;;;;5040998;28;20075;-56
2021/04/13 14:53:49;;;;;;;3.03;0.75;;;;;;;;;;5038800;28;20050;-61
2021/04/13 14:56:17;;;;;;;3.55;0.77;;;;;;;;;;5042955;28;20049;-59
2021/04/13 14:58:43;;;;;;;2.10;0.77;;;;;;;;;;5038480;28;20041;-58
2021/04/13 15:01:18;;;;;;;3.22;0.95;;;;;;;;;;5022927;28;20037;-60
2021/04/13 15:03:44;;;;;;;2.55;0.70;;;;;;;;;;5024122;28;20030;-59
2021/04/13 15:06:11;;;;;;;1.58;0.77;;;;;;;;;;5042678;28;20085;-56
2021/04/13 15:08:37;;;;;;;2.42;0.80;;;;;;;;;;5045224;28;20052;-59